JTA211 ROAH-ROKJ
Flight info
| Callsign | JTA211 |
|---|---|
| Flight time | 0h 21m |
| Altitude | 13000 |
| Route | DORIS |
| Aircraft | B738/M-SDE2E3FGHIRWXY/LB1 |
Departure
| Time | 2026-04-24 13:35 |
|---|---|
| Airport | Naha International Airport (ROAH) |
Arrival
| Time | 2026-04-24 13:56 |
|---|---|
| Airport | Kumejima Airport (ROKJ) |
| Time | Latitude | Longitude | Altitude | Speed | Heading |
|---|---|---|---|---|---|
| 2026-04-24 13:19 | 26.20543 | 127.64865 | 27 ft | 0 kts | 133° |
| 2026-04-24 13:25 | 26.20551 | 127.64855 | 28 ft | 2 kts | 131° |
| 2026-04-24 13:25 | 26.20560 | 127.64844 | 28 ft | 2 kts | 132° |
| 2026-04-24 13:25 | 26.20569 | 127.64832 | 28 ft | 2 kts | 131° |
| 2026-04-24 13:26 | 26.20579 | 127.64820 | 28 ft | 2 kts | 131° |
| 2026-04-24 13:26 | 26.20588 | 127.64808 | 28 ft | 2 kts | 130° |
| 2026-04-24 13:26 | 26.20597 | 127.64796 | 28 ft | 2 kts | 130° |
| 2026-04-24 13:26 | 26.20606 | 127.64785 | 28 ft | 2 kts | 130° |
| 2026-04-24 13:27 | 26.20615 | 127.64773 | 28 ft | 2 kts | 131° |
| 2026-04-24 13:27 | 26.20624 | 127.64761 | 28 ft | 2 kts | 134° |
| 2026-04-24 13:27 | 26.20633 | 127.64752 | 28 ft | 2 kts | 145° |
| 2026-04-24 13:27 | 26.20640 | 127.64747 | 28 ft | 1 kts | 160° |
| 2026-04-24 13:28 | 26.20646 | 127.64745 | 28 ft | 1 kts | 169° |
| 2026-04-24 13:28 | 26.20651 | 127.64744 | 28 ft | 1 kts | 175° |
| 2026-04-24 13:28 | 26.20653 | 127.64744 | 28 ft | 0 kts | 176° |
| 2026-04-24 13:29 | 26.20649 | 127.64744 | 27 ft | 2 kts | 176° |
| 2026-04-24 13:29 | 26.20614 | 127.64746 | 27 ft | 9 kts | 177° |
| 2026-04-24 13:30 | 26.20528 | 127.64749 | 27 ft | 16 kts | 178° |
| 2026-04-24 13:30 | 26.20391 | 127.64755 | 27 ft | 23 kts | 178° |
| 2026-04-24 13:30 | 26.20224 | 127.64763 | 27 ft | 25 kts | 177° |
| 2026-04-24 13:30 | 26.20046 | 127.64772 | 27 ft | 26 kts | 178° |
| 2026-04-24 13:31 | 26.19874 | 127.64780 | 27 ft | 24 kts | 177° |
| 2026-04-24 13:31 | 26.19713 | 127.64788 | 27 ft | 23 kts | 177° |
| 2026-04-24 13:31 | 26.19558 | 127.64796 | 27 ft | 22 kts | 178° |
| 2026-04-24 13:31 | 26.19407 | 127.64800 | 27 ft | 22 kts | 178° |
| 2026-04-24 13:32 | 26.19259 | 127.64808 | 28 ft | 21 kts | 177° |
| 2026-04-24 13:32 | 26.19114 | 127.64816 | 28 ft | 21 kts | 177° |
| 2026-04-24 13:32 | 26.19070 | 127.64818 | 28 ft | 21 kts | 177° |
| 2026-04-24 13:32 | 26.18965 | 127.64823 | 28 ft | 20 kts | 178° |
| 2026-04-24 13:33 | 26.18824 | 127.64820 | 28 ft | 13 kts | 205° |
| 2026-04-24 13:33 | 26.18800 | 127.64746 | 28 ft | 11 kts | 268° |
| 2026-04-24 13:33 | 26.18798 | 127.64658 | 28 ft | 12 kts | 274° |
| 2026-04-24 13:33 | 26.18848 | 127.64621 | 28 ft | 7 kts | 357° |
| 2026-04-24 13:34 | 26.18884 | 127.64619 | 28 ft | 24 kts | 357° |
| 2026-04-24 13:34 | 26.19297 | 127.64600 | 27 ft | 93 kts | 358° |
| 2026-04-24 13:34 | 26.20137 | 127.64567 | 36 ft | 145 kts | 360° |
| 2026-04-24 13:34 | 26.21198 | 127.64536 | 503 ft | 152 kts | 358° |
| 2026-04-24 13:35 | 26.22274 | 127.64484 | 1126 ft | 157 kts | 358° |
| 2026-04-24 13:35 | 26.23348 | 127.64435 | 1842 ft | 157 kts | 358° |
| 2026-04-24 13:35 | 26.24522 | 127.64387 | 2164 ft | 183 kts | 358° |
| 2026-04-24 13:35 | 26.25853 | 127.64078 | 2369 ft | 210 kts | 334° |
| 2026-04-24 13:36 | 26.27190 | 127.63226 | 2558 ft | 233 kts | 331° |
| 2026-04-24 13:36 | 26.28665 | 127.62282 | 2915 ft | 252 kts | 330° |
| 2026-04-24 13:36 | 26.30205 | 127.61304 | 3682 ft | 254 kts | 329° |
| 2026-04-24 13:36 | 26.31763 | 127.60319 | 4393 ft | 259 kts | 328° |
| 2026-04-24 13:37 | 26.33333 | 127.59329 | 5203 ft | 259 kts | 327° |
| 2026-04-24 13:37 | 26.34909 | 127.58339 | 5969 ft | 261 kts | 327° |
| 2026-04-24 13:37 | 26.36503 | 127.57339 | 6741 ft | 264 kts | 326° |
| 2026-04-24 13:37 | 26.38113 | 127.56328 | 7452 ft | 268 kts | 326° |
| 2026-04-24 13:38 | 26.39714 | 127.55256 | 7868 ft | 267 kts | 316° |
| 2026-04-24 13:38 | 26.40855 | 127.53681 | 8017 ft | 262 kts | 292° |
| 2026-04-24 13:38 | 26.41262 | 127.51729 | 8036 ft | 259 kts | 270° |
| 2026-04-24 13:38 | 26.40952 | 127.49759 | 8032 ft | 260 kts | 251° |
| 2026-04-24 13:39 | 26.40025 | 127.48015 | 8030 ft | 264 kts | 235° |
| 2026-04-24 13:39 | 26.38845 | 127.46480 | 8027 ft | 265 kts | 232° |
| 2026-04-24 13:39 | 26.37612 | 127.44949 | 8030 ft | 266 kts | 232° |
| 2026-04-24 13:39 | 26.36385 | 127.43407 | 8025 ft | 266 kts | 232° |
| 2026-04-24 13:40 | 26.35162 | 127.41854 | 8020 ft | 266 kts | 232° |
| 2026-04-24 13:40 | 26.33924 | 127.40315 | 8024 ft | 267 kts | 230° |
| 2026-04-24 13:40 | 26.32610 | 127.38850 | 8023 ft | 267 kts | 228° |
| 2026-04-24 13:40 | 26.31276 | 127.37406 | 8024 ft | 267 kts | 228° |
| 2026-04-24 13:41 | 26.29942 | 127.35966 | 8021 ft | 267 kts | 228° |
| 2026-04-24 13:41 | 26.28611 | 127.34525 | 8030 ft | 266 kts | 228° |
| 2026-04-24 13:41 | 26.27286 | 127.33086 | 8024 ft | 266 kts | 228° |
| 2026-04-24 13:41 | 26.25963 | 127.31645 | 8026 ft | 266 kts | 228° |
| 2026-04-24 13:42 | 26.24641 | 127.30204 | 8030 ft | 266 kts | 228° |
| 2026-04-24 13:42 | 26.23320 | 127.28762 | 8038 ft | 266 kts | 228° |
| 2026-04-24 13:42 | 26.21996 | 127.27316 | 8023 ft | 267 kts | 228° |
| 2026-04-24 13:42 | 26.20668 | 127.25866 | 8028 ft | 267 kts | 228° |
| 2026-04-24 13:43 | 26.19344 | 127.24421 | 8032 ft | 266 kts | 228° |
| 2026-04-24 13:43 | 26.18024 | 127.22979 | 8035 ft | 266 kts | 228° |
| 2026-04-24 13:43 | 26.16703 | 127.21538 | 8033 ft | 266 kts | 228° |
| 2026-04-24 13:43 | 26.15382 | 127.20097 | 8045 ft | 266 kts | 228° |
| 2026-04-24 13:44 | 26.14060 | 127.18657 | 8041 ft | 266 kts | 228° |
| 2026-04-24 13:44 | 26.12900 | 127.17085 | 8031 ft | 261 kts | 245° |
| 2026-04-24 13:44 | 26.12345 | 127.15188 | 8048 ft | 258 kts | 262° |
| 2026-04-24 13:44 | 26.12113 | 127.13208 | 8044 ft | 258 kts | 264° |
| 2026-04-24 13:45 | 26.11912 | 127.11223 | 8045 ft | 259 kts | 264° |
| 2026-04-24 13:45 | 26.11713 | 127.09235 | 8048 ft | 259 kts | 264° |
| 2026-04-24 13:45 | 26.11512 | 127.07243 | 8042 ft | 259 kts | 264° |
| 2026-04-24 13:45 | 26.11307 | 127.05251 | 8032 ft | 259 kts | 264° |
| 2026-04-24 13:46 | 26.11102 | 127.03284 | 8031 ft | 254 kts | 264° |
| 2026-04-24 13:46 | 26.10899 | 127.01352 | 8040 ft | 249 kts | 264° |
| 2026-04-24 13:46 | 26.10701 | 126.99485 | 8036 ft | 245 kts | 264° |
| 2026-04-24 13:46 | 26.10501 | 126.97601 | 8034 ft | 246 kts | 264° |
| 2026-04-24 13:47 | 26.10298 | 126.95692 | 7866 ft | 249 kts | 264° |
| 2026-04-24 13:47 | 26.10092 | 126.93771 | 7663 ft | 250 kts | 264° |
| 2026-04-24 13:47 | 26.09887 | 126.91859 | 7399 ft | 248 kts | 264° |
| 2026-04-24 13:47 | 26.09683 | 126.89960 | 7128 ft | 246 kts | 264° |
| 2026-04-24 13:48 | 26.09480 | 126.88072 | 6853 ft | 245 kts | 264° |
| 2026-04-24 13:48 | 26.09277 | 126.86192 | 6587 ft | 244 kts | 264° |
| 2026-04-24 13:48 | 26.09074 | 126.84315 | 6286 ft | 244 kts | 264° |
| 2026-04-24 13:48 | 26.08873 | 126.82448 | 6000 ft | 243 kts | 264° |
| 2026-04-24 13:49 | 26.08672 | 126.80587 | 5713 ft | 242 kts | 264° |
| 2026-04-24 13:49 | 26.08471 | 126.78726 | 5415 ft | 242 kts | 264° |
| 2026-04-24 13:49 | 26.08268 | 126.76862 | 5141 ft | 242 kts | 264° |
| 2026-04-24 13:49 | 26.08066 | 126.75008 | 4859 ft | 241 kts | 264° |
| 2026-04-24 13:50 | 26.07874 | 126.73160 | 4586 ft | 240 kts | 268° |
| 2026-04-24 13:50 | 26.08173 | 126.71359 | 4301 ft | 239 kts | 295° |
| 2026-04-24 13:50 | 26.09204 | 126.69924 | 4055 ft | 240 kts | 320° |
| 2026-04-24 13:50 | 26.10686 | 126.69076 | 3797 ft | 242 kts | 342° |
| 2026-04-24 13:51 | 26.12333 | 126.68657 | 3524 ft | 243 kts | 348° |
| 2026-04-24 13:51 | 26.13978 | 126.68326 | 3399 ft | 236 kts | 349° |
| 2026-04-24 13:51 | 26.15571 | 126.68008 | 3273 ft | 229 kts | 349° |
| 2026-04-24 13:51 | 26.17114 | 126.67688 | 3167 ft | 222 kts | 349° |
| 2026-04-24 13:52 | 26.18108 | 126.67477 | 3091 ft | 217 kts | 349° |
| 2026-04-24 13:52 | 26.20057 | 126.67058 | 2932 ft | 208 kts | 349° |
| 2026-04-24 13:52 | 26.21447 | 126.66756 | 2787 ft | 201 kts | 349° |
| 2026-04-24 13:52 | 26.22791 | 126.66463 | 2629 ft | 192 kts | 350° |
| 2026-04-24 13:53 | 26.24081 | 126.66360 | 2410 ft | 182 kts | 11° |
| 2026-04-24 13:53 | 26.25262 | 126.66677 | 2192 ft | 169 kts | 17° |
| 2026-04-24 13:53 | 26.26324 | 126.67069 | 2024 ft | 151 kts | 21° |
| 2026-04-24 13:53 | 26.27264 | 126.67468 | 1785 ft | 138 kts | 22° |
| 2026-04-24 13:54 | 26.28136 | 126.67844 | 1618 ft | 131 kts | 22° |
| 2026-04-24 13:54 | 26.28980 | 126.68207 | 1463 ft | 132 kts | 22° |
| 2026-04-24 13:54 | 26.29851 | 126.68585 | 1304 ft | 136 kts | 23° |
| 2026-04-24 13:54 | 26.30730 | 126.68967 | 1106 ft | 134 kts | 20° |
| 2026-04-24 13:55 | 26.31578 | 126.69330 | 914 ft | 132 kts | 21° |
| 2026-04-24 13:55 | 26.32447 | 126.69698 | 739 ft | 137 kts | 21° |
| 2026-04-24 13:55 | 26.33347 | 126.70089 | 549 ft | 140 kts | 22° |
| 2026-04-24 13:55 | 26.34256 | 126.70479 | 361 ft | 140 kts | 22° |
| 2026-04-24 13:56 | 26.35162 | 126.70873 | 137 ft | 137 kts | 21° |
| 2026-04-24 13:56 | 26.36014 | 126.71242 | 32 ft | 123 kts | 21° |
| 2026-04-24 13:56 | 26.36672 | 126.71521 | 27 ft | 79 kts | 21° |
| 2026-04-24 13:56 | 26.37034 | 126.71676 | 26 ft | 25 kts | 22° |
| 2026-04-24 13:57 | 26.37118 | 126.71738 | 27 ft | 20 kts | 49° |
| 2026-04-24 13:57 | 26.37160 | 126.71760 | 27 ft | 1 kts | 344° |
| 2026-04-24 13:57 | 26.37165 | 126.71750 | 27 ft | 3 kts | 286° |
| 2026-04-24 13:57 | 26.37138 | 126.71718 | 27 ft | 10 kts | 208° |
| 2026-04-24 13:58 | 26.37057 | 126.71684 | 26 ft | 15 kts | 202° |
| 2026-04-24 13:58 | 26.36953 | 126.71640 | 27 ft | 17 kts | 201° |
| 2026-04-24 13:58 | 26.36828 | 126.71587 | 27 ft | 21 kts | 200° |
| 2026-04-24 13:58 | 26.36675 | 126.71522 | 27 ft | 25 kts | 201° |
| 2026-04-24 13:59 | 26.36546 | 126.71491 | 29 ft | 14 kts | 146° |
| 2026-04-24 13:59 | 26.36508 | 126.71585 | 28 ft | 13 kts | 112° |
| 2026-04-24 13:59 | 26.36479 | 126.71670 | 28 ft | 4 kts | 111° |
| 2026-04-24 13:59 | 26.36477 | 126.71674 | 28 ft | 0 kts | 111° |
| 2026-04-24 14:06 | 26.36478 | 126.71672 | 28 ft | 2 kts | 111° |
| 2026-04-24 14:06 | 26.36482 | 126.71658 | 28 ft | 2 kts | 111° |
| 2026-04-24 14:06 | 26.36488 | 126.71644 | 28 ft | 2 kts | 113° |
| 2026-04-24 14:07 | 26.36493 | 126.71631 | 28 ft | 2 kts | 118° |
| 2026-04-24 14:07 | 26.36499 | 126.71620 | 28 ft | 1 kts | 131° |
| 2026-04-24 14:07 | 26.36503 | 126.71615 | 28 ft | 1 kts | 150° |
| 2026-04-24 14:07 | 26.36508 | 126.71612 | 28 ft | 1 kts | 171° |
| 2026-04-24 14:08 | 26.36514 | 126.71612 | 28 ft | 1 kts | 186° |
| 2026-04-24 14:08 | 26.36520 | 126.71613 | 28 ft | 1 kts | 194° |
| 2026-04-24 14:08 | 26.36526 | 126.71614 | 28 ft | 1 kts | 198° |
| 2026-04-24 14:08 | 26.36531 | 126.71616 | 28 ft | 1 kts | 200° |
| 2026-04-24 14:09 | 26.36536 | 126.71619 | 28 ft | 1 kts | 201° |
| 2026-04-24 14:09 | 26.36539 | 126.71620 | 28 ft | 0 kts | 202° |
| 2026-04-24 14:09 | 26.36538 | 126.71619 | 28 ft | 1 kts | 202° |
| 2026-04-24 14:10 | 26.36519 | 126.71608 | 28 ft | 6 kts | 220° |
| 2026-04-24 14:10 | 26.36521 | 126.71548 | 28 ft | 11 kts | 290° |
| 2026-04-24 14:10 | 26.36535 | 126.71468 | 28 ft | 9 kts | 240° |
| 2026-04-24 14:10 | 26.36471 | 126.71434 | 28 ft | 12 kts | 200° |
| 2026-04-24 14:11 | 26.36376 | 126.71393 | 28 ft | 17 kts | 201° |
| 2026-04-24 14:11 | 26.36256 | 126.71341 | 28 ft | 20 kts | 200° |
| 2026-04-24 14:11 | 26.36009 | 126.71236 | 32 ft | 18 kts | 201° |
| 2026-04-24 14:12 | 26.35888 | 126.71185 | 32 ft | 20 kts | 201° |